Time;durP1;ratioP1;P1;durP2;ratioP2;P2;SDS_P1;SDS_P2;PMS_P1;PMS_P2;Temp;Humidity;BMP_temperature;BMP_pressure;BME280_temperature;BME280_humidity;BME280_pressure;Samples;Min_cycle;Max_cycle;Signal;HPM_P1;HPM_P2
2020/12/27 00:00:13;;;;;;;13.70;9.15;;;21.20;32.40;;;;;;5090413;28;20083;-63
2020/12/27 00:02:40;;;;;;;11.60;8.45;;;21.20;32.40;;;;;;5090552;28;20365;-63
2020/12/27 00:05:07;;;;;;;12.90;9.23;;;21.20;32.50;;;;;;5090218;28;20182;-64
2020/12/27 00:07:34;;;;;;;12.10;9.05;;;21.20;32.50;;;;;;5090249;28;20083;-63
2020/12/27 00:10:02;;;;;;;13.55;9.00;;;21.20;32.50;;;;;;5091042;28;20075;-64
2020/12/27 00:12:28;;;;;;;12.75;8.93;;;21.10;32.40;;;;;;5089897;28;20466;-64
2020/12/27 00:14:55;;;;;;;13.63;9.27;;;21.20;32.50;;;;;;5090958;28;20195;-63
2020/12/27 00:17:21;;;;;;;13.65;9.95;;;21.10;32.50;;;;;;5089172;28;20047;-64
2020/12/27 00:19:48;;;;;;;14.95;9.98;;;21.10;32.50;;;;;;5089664;28;20044;-63
2020/12/27 00:22:16;;;;;;;13.40;9.85;;;21.10;32.50;;;;;;5089742;28;20408;-64
2020/12/27 00:24:42;;;;;;;13.48;9.00;;;21.10;32.50;;;;;;5088869;28;20130;-64
2020/12/27 00:27:09;;;;;;;13.18;9.50;;;21.10;32.60;;;;;;5089989;28;20416;-63
2020/12/27 00:29:36;;;;;;;12.55;9.23;;;21.10;32.60;;;;;;5089671;28;20079;-64
2020/12/27 00:32:02;;;;;;;13.43;9.32;;;21.10;32.60;;;;;;5089437;28;20131;-64
2020/12/27 00:34:29;;;;;;;14.77;9.45;;;21.10;32.60;;;;;;5090264;28;20300;-64
2020/12/27 00:36:57;;;;;;;13.15;8.90;;;21.10;32.60;;;;;;5089669;28;20131;-63
2020/12/27 00:39:25;;;;;;;13.77;9.88;;;21.10;32.60;;;;;;5089772;28;20082;-64
2020/12/27 00:41:51;;;;;;;13.77;9.68;;;21.10;32.60;;;;;;5089050;28;20080;-64
2020/12/27 00:44:18;;;;;;;12.82;9.43;;;21.10;32.70;;;;;;5089821;28;20304;-64
2020/12/27 00:46:51;;;;;;;15.90;9.00;;;21.10;32.60;;;;;;5089301;28;20122;-64
2020/12/27 00:49:18;;;;;;;13.55;9.18;;;21.00;32.60;;;;;;5089821;28;20477;-64
2020/12/27 00:51:45;;;;;;;13.98;9.27;;;21.00;32.60;;;;;;5087470;28;20349;-64
2020/12/27 00:54:12;;;;;;;14.18;9.88;;;21.10;32.60;;;;;;5087169;28;20135;-64
2020/12/27 00:56:39;;;;;;;12.98;9.45;;;21.10;32.60;;;;;;5089597;28;20131;-64
2020/12/27 00:59:06;;;;;;;13.88;9.68;;;21.10;32.60;;;;;;5089718;28;20051;-63
2020/12/27 01:01:33;;;;;;;14.32;10.07;;;21.10;32.60;;;;;;5089438;28;20367;-64
2020/12/27 01:04:00;;;;;;;14.25;9.90;;;21.10;32.60;;;;;;5089405;28;20321;-63
2020/12/27 01:06:28;;;;;;;13.77;9.70;;;21.10;32.60;;;;;;5088689;28;20340;-64
2020/12/27 01:08:55;;;;;;;16.92;11.10;;;21.10;32.50;;;;;;5089550;28;20044;-64
2020/12/27 01:11:22;;;;;;;14.95;10.18;;;21.10;32.60;;;;;;5089579;28;20109;-63
2020/12/27 01:13:48;;;;;;;13.80;9.77;;;21.10;32.50;;;;;;5089101;28;20067;-63
2020/12/27 01:16:19;;;;;;;13.63;9.82;;;21.10;32.60;;;;;;5089417;28;20139;-64
2020/12/27 01:18:47;;;;;;;16.67;10.35;;;21.10;32.60;;;;;;5089046;28;20199;-63
2020/12/27 01:21:25;;;;;;;16.13;10.10;;;21.00;32.50;;;;;;5088874;28;20132;-64
2020/12/27 01:23:52;;;;;;;14.05;9.82;;;21.00;32.50;;;;;;5088978;28;20056;-64
2020/12/27 01:26:30;;;;;;;13.15;9.43;;;21.00;32.50;;;;;;5087779;28;20275;-64
2020/12/27 01:28:57;;;;;;;14.50;9.65;;;21.00;32.60;;;;;;5088834;28;20052;-64
2020/12/27 01:31:24;;;;;;;14.45;9.45;;;21.00;32.60;;;;;;5089699;28;20040;-64
2020/12/27 01:33:51;;;;;;;14.50;9.95;;;21.00;32.60;;;;;;5090625;28;20037;-63
2020/12/27 01:36:30;;;;;;;14.23;10.15;;;21.00;32.60;;;;;;5089660;28;20094;-63
2020/12/27 01:38:58;;;;;;;14.15;10.05;;;21.00;32.60;;;;;;5090586;28;20048;-64
2020/12/27 01:41:25;;;;;;;13.15;9.57;;;21.00;32.60;;;;;;5089467;28;20142;-63
2020/12/27 01:44:07;;;;;;;14.32;9.40;;;21.00;32.60;;;;;;5088455;28;20536;-64
2020/12/27 01:46:36;;;;;;;14.18;9.40;;;21.00;32.60;;;;;;5090846;28;20072;-64
2020/12/27 01:49:04;;;;;;;13.80;10.35;;;21.00;32.60;;;;;;5088751;28;20056;-64
2020/12/27 01:51:31;;;;;;;13.88;9.30;;;20.90;32.60;;;;;;5091036;28;20122;-63
2020/12/27 01:53:57;;;;;;;18.88;10.77;;;20.90;32.60;;;;;;5089236;28;20097;-64
2020/12/27 01:56:33;;;;;;;12.95;9.43;;;20.90;32.60;;;;;;5088191;28;20079;-66
2020/12/27 01:59:08;;;;;;;12.98;9.25;;;21.00;32.70;;;;;;5088078;28;20044;-63
2020/12/27 02:01:37;;;;;;;14.13;9.90;;;20.90;32.60;;;;;;5087054;28;20048;-64
2020/12/27 02:04:04;;;;;;;14.32;9.77;;;21.00;32.60;;;;;;5087103;28;20130;-63
2020/12/27 02:06:31;;;;;;;15.02;10.38;;;20.90;32.60;;;;;;5087469;28;20104;-64
2020/12/27 02:08:59;;;;;;;16.45;10.23;;;20.90;32.60;;;;;;5088171;28;20461;-64
2020/12/27 02:11:26;;;;;;;16.13;10.77;;;21.00;32.60;;;;;;5087831;28;20554;-64
2020/12/27 02:13:59;;;;;;;13.20;9.80;;;21.00;32.60;;;;;;5088050;28;20083;-63
2020/12/27 02:16:27;;;;;;;13.98;10.23;;;21.00;32.60;;;;;;5087821;28;20055;-64
2020/12/27 02:19:02;;;;;;;14.90;10.07;;;20.90;32.50;;;;;;5087136;28;20075;-64
2020/12/27 02:21:29;;;;;;;13.88;9.63;;;20.90;32.50;;;;;;5086949;28;20051;-64
2020/12/27 02:23:57;;;;;;;14.73;9.75;;;20.90;32.50;;;;;;5087438;28;20139;-63
2020/12/27 02:26:25;;;;;;;14.25;9.50;;;20.90;32.50;;;;;;5087513;28;20585;-64
2020/12/27 02:28:52;;;;;;;13.18;9.20;;;20.90;32.60;;;;;;5087164;28;20138;-63
2020/12/27 02:31:23;;;;;;;14.50;10.50;;;20.90;32.60;;;;;;5086585;28;20382;-63
2020/12/27 02:33:49;;;;;;;14.90;9.25;;;20.90;32.60;;;;;;5087905;28;20085;-64
2020/12/27 02:36:16;;;;;;;13.55;9.85;;;20.90;32.60;;;;;;5087224;28;20131;-64
2020/12/27 02:38:43;;;;;;;13.07;8.98;;;20.90;32.60;;;;;;5087470;28;20099;-63
2020/12/27 02:41:19;;;;;;;12.50;9.18;;;20.90;32.60;;;;;;5087515;28;20085;-64
2020/12/27 02:43:46;;;;;;;15.00;10.00;;;20.90;32.60;;;;;;5087273;28;20119;-63
2020/12/27 02:46:25;;;;;;;14.40;9.85;;;20.90;32.60;;;;;;5086009;28;20116;-64
2020/12/27 02:48:52;;;;;;;13.55;9.30;;;20.90;32.60;;;;;;5087748;28;20083;-64
2020/12/27 02:51:20;;;;;;;13.80;9.20;;;20.90;32.60;;;;;;5087197;28;20086;-64
2020/12/27 02:53:48;;;;;;;13.43;8.77;;;20.90;32.60;;;;;;5085849;28;20052;-64
2020/12/27 02:56:23;;;;;;;12.98;9.05;;;20.80;32.60;;;;;;5086769;28;20083;-64
2020/12/27 02:58:51;;;;;;;12.52;8.93;;;20.90;32.60;;;;;;5087522;28;20082;-63
2020/12/27 03:01:18;;;;;;;16.38;9.32;;;20.90;32.60;;;;;;5086995;28;20044;-64
2020/12/27 03:03:45;;;;;;;13.98;9.30;;;20.90;32.60;;;;;;5087746;28;20143;-64
2020/12/27 03:06:27;;;;;;;13.35;9.27;;;20.90;32.60;;;;;;5091195;28;20089;-64
2020/12/27 03:08:57;;;;;;;12.27;9.05;;;20.80;32.60;;;;;;5096446;28;20087;-64
2020/12/27 03:11:25;;;;;;;13.32;9.32;;;20.80;32.60;;;;;;5095003;28;20060;-64
2020/12/27 03:13:52;;;;;;;13.55;9.35;;;20.90;32.60;;;;;;5094853;28;20553;-64
2020/12/27 03:16:19;;;;;;;13.13;8.95;;;20.90;32.60;;;;;;5094099;28;20108;-64
2020/12/27 03:18:46;;;;;;;13.10;8.52;;;20.90;32.60;;;;;;5093775;28;20174;-64
2020/12/27 03:21:15;;;;;;;12.98;8.70;;;20.90;32.50;;;;;;5095930;28;20180;-64
2020/12/27 03:23:41;;;;;;;14.10;9.15;;;20.90;32.60;;;;;;5096394;28;20048;-62
2020/12/27 03:26:08;;;;;;;13.35;9.13;;;20.90;32.60;;;;;;5091292;28;20086;-66
2020/12/27 03:28:34;;;;;;;11.70;8.75;;;20.80;32.50;;;;;;5091155;28;20496;-63
2020/12/27 03:31:01;;;;;;;12.90;9.02;;;20.80;32.50;;;;;;5091144;28;20552;-64
2020/12/27 03:33:28;;;;;;;14.57;9.63;;;20.80;32.50;;;;;;5091720;28;20056;-63
2020/12/27 03:35:55;;;;;;;11.48;8.70;;;20.80;32.50;;;;;;5090496;28;20048;-64
2020/12/27 03:38:22;;;;;;;12.60;9.00;;;20.80;32.50;;;;;;5090870;28;20137;-63
2020/12/27 03:40:49;;;;;;;12.18;8.50;;;20.80;32.50;;;;;;5089723;28;20437;-63
2020/12/27 03:43:15;;;;;;;14.50;9.45;;;20.80;32.50;;;;;;5090973;28;20047;-63
2020/12/27 03:45:42;;;;;;;12.32;8.43;;;20.80;32.50;;;;;;5091102;28;20191;-63
2020/12/27 03:48:09;;;;;;;12.32;8.85;;;20.80;32.50;;;;;;5089637;28;20442;-64
2020/12/27 03:50:36;;;;;;;12.13;8.32;;;20.80;32.60;;;;;;5090755;28;20117;-63
2020/12/27 03:53:02;;;;;;;11.13;8.63;;;20.80;32.60;;;;;;5090658;28;20492;-63
2020/12/27 03:55:29;;;;;;;12.10;8.80;;;20.80;32.60;;;;;;5090328;28;20132;-63
2020/12/27 03:57:55;;;;;;;11.20;7.88;;;20.80;32.60;;;;;;5090971;28;20135;-64
2020/12/27 04:00:23;;;;;;;12.18;8.55;;;20.80;32.60;;;;;;5090537;28;20083;-64
2020/12/27 04:02:53;;;;;;;12.77;8.68;;;20.70;32.60;;;;;;5090820;28;20496;-63
2020/12/27 04:05:19;;;;;;;13.10;8.55;;;20.70;32.60;;;;;;5090066;28;20047;-63
2020/12/27 04:07:46;;;;;;;13.35;8.10;;;20.70;32.60;;;;;;5089678;28;20051;-64
2020/12/27 04:10:15;;;;;;;10.93;7.95;;;20.70;32.60;;;;;;5090518;28;20051;-63
2020/12/27 04:12:42;;;;;;;12.55;8.65;;;20.70;32.60;;;;;;5090192;28;20051;-63
2020/12/27 04:15:09;;;;;;;9.75;7.55;;;20.70;32.60;;;;;;5090207;28;20486;-63
2020/12/27 04:17:35;;;;;;;11.48;8.35;;;20.80;32.60;;;;;;5089346;28;20083;-63
2020/12/27 04:20:03;;;;;;;11.48;8.60;;;20.70;32.60;;;;;;5089929;28;20695;-63
2020/12/27 04:22:30;;;;;;;11.65;8.45;;;20.70;32.50;;;;;;5088957;28;20562;-63
2020/12/27 04:24:56;;;;;;;12.48;8.63;;;20.80;32.60;;;;;;5090030;28;20115;-66
2020/12/27 04:27:23;;;;;;;10.75;7.70;;;20.80;32.60;;;;;;5089802;28;20485;-64
2020/12/27 04:29:50;;;;;;;11.23;8.23;;;20.80;32.60;;;;;;5090260;28;20462;-63
2020/12/27 04:32:16;;;;;;;12.90;8.57;;;20.80;32.50;;;;;;5089716;28;20469;-63
2020/12/27 04:34:43;;;;;;;12.13;8.57;;;20.80;32.50;;;;;;5090529;28;20582;-63
2020/12/27 04:37:23;;;;;;;12.52;8.20;;;20.80;32.50;;;;;;5090342;28;20059;-63
2020/12/27 04:39:51;;;;;;;10.75;7.82;;;20.80;32.50;;;;;;5090837;28;20408;-64
2020/12/27 04:42:17;;;;;;;12.45;9.13;;;20.80;32.50;;;;;;5089517;28;20132;-63
2020/12/27 04:44:44;;;;;;;12.65;8.55;;;20.80;32.50;;;;;;5089778;28;20552;-63
2020/12/27 04:47:13;;;;;;;10.80;7.88;;;20.70;32.50;;;;;;5089970;28;20162;-63
2020/12/27 04:49:40;;;;;;;11.15;7.90;;;20.70;32.50;;;;;;5089461;28;20158;-63
2020/12/27 04:52:11;;;;;;;10.57;8.13;;;20.70;32.60;;;;;;5090069;28;20052;-63
2020/12/27 04:54:38;;;;;;;;;;;20.70;32.50;;;;;;5089953;28;20044;-63
2020/12/27 04:57:04;;;;;;;10.50;7.70;;;20.70;32.50;;;;;;5089229;28;19967;-64
2020/12/27 04:59:31;;;;;;;11.90;8.32;;;20.70;32.60;;;;;;5089086;28;20043;-63
2020/12/27 05:01:58;;;;;;;10.50;7.50;;;20.70;32.60;;;;;;5089197;28;20087;-64
2020/12/27 05:04:26;;;;;;;11.52;7.93;;;20.70;32.60;;;;;;5089171;28;20074;-64
2020/12/27 05:06:54;;;;;;;11.23;8.35;;;20.70;32.60;;;;;;5087588;28;20459;-63
2020/12/27 05:09:27;;;;;;;9.38;7.13;;;20.70;32.60;;;;;;5088391;28;20055;-63
2020/12/27 05:11:54;;;;;;;11.60;8.60;;;20.70;32.60;;;;;;5089572;28;20040;-63
2020/12/27 05:14:23;;;;;;;10.48;7.72;;;20.70;32.60;;;;;;5071019;28;20058;-63
2020/12/27 05:16:52;;;;;;;12.68;8.27;;;20.70;32.60;;;;;;5089137;28;20296;-63
2020/12/27 05:19:19;;;;;;;11.43;7.68;;;20.70;32.60;;;;;;5088863;28;20052;-63
2020/12/27 05:21:46;;;;;;;10.70;8.10;;;20.70;32.60;;;;;;5088144;28;20317;-64
2020/12/27 05:24:14;;;;;;;11.52;7.57;;;20.70;32.50;;;;;;5089157;28;20334;-63
2020/12/27 05:26:41;;;;;;;10.73;7.22;;;20.70;32.50;;;;;;5087127;28;20131;-63
2020/12/27 05:29:09;;;;;;;12.88;8.23;;;20.70;32.50;;;;;;5088084;28;20052;-63
2020/12/27 05:31:37;;;;;;;10.80;7.68;;;20.70;32.50;;;;;;5088539;28;20123;-64
2020/12/27 05:34:08;;;;;;;8.67;6.93;;;20.70;32.50;;;;;;5088644;28;20211;-63
2020/12/27 05:36:35;;;;;;;11.25;7.55;;;20.70;32.50;;;;;;5088931;28;20072;-63
2020/12/27 05:39:02;;;;;;;11.48;7.93;;;20.70;32.50;;;;;;5088651;28;20471;-63
2020/12/27 05:41:30;;;;;;;10.63;8.25;;;20.70;32.50;;;;;;5088377;28;20490;-64
2020/12/27 05:44:04;;;;;;;10.65;7.82;;;20.70;32.50;;;;;;5087770;28;20136;-63
2020/12/27 05:46:31;;;;;;;8.95;7.18;;;20.70;32.50;;;;;;5088646;28;20051;-63
2020/12/27 05:48:59;;;;;;;10.13;7.60;;;20.70;32.50;;;;;;5088442;28;20106;-63
2020/12/27 05:51:26;;;;;;;10.40;7.32;;;20.80;32.50;;;;;;5088260;28;20090;-63
2020/12/27 05:53:54;;;;;;;11.82;8.18;;;20.70;32.50;;;;;;5088714;28;20048;-63
2020/12/27 05:56:21;;;;;;;10.40;7.32;;;20.70;32.60;;;;;;5086965;28;20112;-63
2020/12/27 05:58:49;;;;;;;10.70;7.53;;;20.70;32.60;;;;;;5087913;28;20040;-64
2020/12/27 06:01:23;;;;;;;9.40;7.15;;;20.70;32.50;;;;;;5088080;28;20090;-63
2020/12/27 06:03:58;;;;;;;9.77;7.30;;;20.70;32.50;;;;;;5087442;28;20139;-63
2020/12/27 06:07:05;;;;;;;10.48;7.97;;;20.70;32.50;;;;;;5087579;28;20075;-63
2020/12/27 06:09:53;;;;;;;9.35;7.18;;;20.70;32.50;;;;;;5075591;28;20083;-63
2020/12/27 06:12:21;;;;;;;10.25;7.60;;;20.70;32.40;;;;;;5088021;28;20072;-63
2020/12/27 06:15:07;;;;;;;10.38;7.07;;;20.70;32.40;;;;;;5087788;28;20589;-63
2020/12/27 06:18:06;;;;;;;10.10;7.85;;;20.70;32.30;;;;;;5087983;28;20136;-63
2020/12/27 06:20:39;;;;;;;11.10;8.52;;;20.70;32.20;;;;;;5087079;28;20125;-63
2020/12/27 06:23:06;;;;;;;10.90;7.88;;;20.70;32.20;;;;;;5087897;28;20051;-63
2020/12/27 06:25:35;;;;;;;9.77;7.18;;;20.70;32.10;;;;;;5087836;28;20139;-63
2020/12/27 06:28:02;;;;;;;9.35;7.30;;;20.70;32.10;;;;;;5087896;28;20109;-63
2020/12/27 06:30:40;;;;;;;9.90;7.57;;;20.70;32.00;;;;;;5087338;28;20081;-63
2020/12/27 06:33:19;;;;;;;8.55;6.72;;;20.70;31.90;;;;;;5087806;28;20451;-63
2020/12/27 06:35:47;;;;;;;10.68;7.25;;;20.80;31.90;;;;;;5087693;28;20044;-63
2020/12/27 06:38:19;;;;;;;9.35;7.15;;;20.80;31.80;;;;;;5087138;28;20044;-63
2020/12/27 06:40:48;;;;;;;9.18;6.57;;;20.80;31.70;;;;;;5086917;28;20497;-63
2020/12/27 06:43:23;;;;;;;9.80;7.40;;;20.90;31.70;;;;;;5087488;28;20075;-63
2020/12/27 06:45:51;;;;;;;8.48;6.50;;;20.90;31.50;;;;;;5087119;28;20467;-63
2020/12/27 06:48:36;;;;;;;9.70;6.88;;;20.90;31.50;;;;;;5087706;28;20050;-63
2020/12/27 06:51:03;;;;;;;10.50;7.22;;;21.00;31.40;;;;;;5086916;28;20701;-63
2020/12/27 06:53:44;;;;;;;8.43;6.55;;;21.00;31.40;;;;;;5087832;28;20541;-63
2020/12/27 06:56:15;;;;;;;7.60;6.40;;;21.10;31.30;;;;;;5086815;28;20087;-64
2020/12/27 06:59:00;;;;;;;9.05;6.57;;;21.10;31.20;;;;;;5087701;28;20105;-63
2020/12/27 07:01:27;;;;;;;8.43;6.78;;;21.10;31.20;;;;;;5086773;28;20542;-63
2020/12/27 07:04:14;;;;;;;8.27;6.50;;;21.10;31.10;;;;;;5087656;28;20054;-63
2020/12/27 07:06:42;;;;;;;7.13;5.78;;;21.20;31.10;;;;;;5087395;28;20043;-63
2020/12/27 07:09:18;;;;;;;8.60;6.47;;;21.20;31.00;;;;;;5086977;28;20044;-63
2020/12/27 07:11:45;;;;;;;9.27;6.60;;;21.20;30.90;;;;;;5086765;28;20078;-64
2020/12/27 07:14:13;;;;;;;8.00;6.20;;;21.30;30.90;;;;;;5087244;28;20245;-63
2020/12/27 07:16:50;;;;;;;7.85;6.03;;;21.30;30.90;;;;;;5085275;28;20473;-63
2020/12/27 07:19:18;;;;;;;7.90;6.15;;;21.30;30.80;;;;;;5087332;28;20113;-63
2020/12/27 07:21:46;;;;;;;6.85;5.72;;;21.30;30.70;;;;;;5086047;28;20075;-63
2020/12/27 07:24:18;;;;;;;6.82;5.97;;;21.40;30.60;;;;;;5087348;28;20048;-63
2020/12/27 07:26:46;;;;;;;8.60;6.05;;;21.40;30.60;;;;;;5085408;28;20405;-63
2020/12/27 07:29:21;;;;;;;6.38;5.43;;;21.40;30.50;;;;;;5087490;28;20401;-63
2020/12/27 07:31:51;;;;;;;9.05;5.57;;;21.50;30.50;;;;;;5085723;28;20044;-63
2020/12/27 07:34:23;;;;;;;6.33;5.33;;;21.50;30.70;;;;;;5086929;28;20151;-63
2020/12/27 07:36:58;;;;;;;6.55;5.72;;;21.50;30.30;;;;;;5086585;28;20363;-63
2020/12/27 07:39:52;;;;;;;7.85;5.68;;;21.60;30.30;;;;;;5086140;28;20071;-63
2020/12/27 07:42:31;;;;;;;6.13;5.18;;;21.60;30.20;;;;;;5086253;28;20470;-63
2020/12/27 07:45:00;;;;;;;6.90;5.50;;;21.60;30.20;;;;;;5086804;28;20052;-63
2020/12/27 07:47:28;;;;;;;6.30;4.95;;;21.70;30.10;;;;;;5086991;28;20112;-64
2020/12/27 07:50:13;;;;;;;6.25;5.25;;;21.70;30.10;;;;;;5086993;28;20059;-63
2020/12/27 07:52:58;;;;;;;6.70;5.18;;;21.70;30.00;;;;;;5088288;28;20047;-64
2020/12/27 07:55:37;;;;;;;7.25;5.75;;;21.80;30.00;;;;;;5088703;28;20620;-63
2020/12/27 07:58:06;;;;;;;5.47;4.85;;;21.80;30.00;;;;;;5090621;28;20079;-63
2020/12/27 08:00:35;;;;;;;6.72;4.63;;;21.80;30.00;;;;;;5090993;28;20044;-63
2020/12/27 08:03:06;;;;;;;6.28;5.05;;;21.90;30.00;;;;;;5089955;28;20116;-63
2020/12/27 08:05:34;;;;;;;6.45;5.10;;;21.90;30.00;;;;;;5090593;28;20472;-63
2020/12/27 08:08:06;;;;;;;5.50;4.72;;;21.90;29.90;;;;;;5090258;28;20079;-63
2020/12/27 08:10:34;;;;;;;5.93;5.20;;;21.90;29.90;;;;;;5090116;28;20075;-64
2020/12/27 08:13:02;;;;;;;5.20;4.70;;;22.00;29.90;;;;;;5089215;28;20079;-63
2020/12/27 08:15:30;;;;;;;6.88;5.28;;;22.00;29.80;;;;;;5090159;28;20048;-64
2020/12/27 08:18:00;;;;;;;5.57;5.00;;;22.00;29.80;;;;;;5090283;28;20076;-63
2020/12/27 08:20:28;;;;;;;6.10;5.18;;;22.00;29.70;;;;;;5089821;28;20086;-63
2020/12/27 08:23:03;;;;;;;5.25;4.75;;;22.10;29.70;;;;;;5090142;28;20130;-63
2020/12/27 08:25:31;;;;;;;7.13;5.57;;;22.10;29.60;;;;;;5090050;28;20056;-63
2020/12/27 08:27:59;;;;;;;6.78;5.18;;;22.10;29.60;;;;;;5089515;28;20044;-64
2020/12/27 08:30:28;;;;;;;6.20;5.13;;;22.20;29.60;;;;;;5089934;28;20047;-63
2020/12/27 08:33:11;;;;;;;7.13;5.70;;;22.20;29.50;;;;;;5089741;28;20603;-66
2020/12/27 08:35:42;;;;;;;6.50;5.05;;;22.30;29.50;;;;;;5090056;28;20084;-63
2020/12/27 08:38:25;;;;;;;6.95;5.15;;;22.30;29.50;;;;;;5089996;28;20295;-64
2020/12/27 08:41:14;;;;;;;6.78;5.40;;;22.30;29.40;;;;;;5088240;28;20048;-64
2020/12/27 08:44:19;;;;;;;6.55;4.65;;;22.30;29.40;;;;;;5089458;28;20133;-64
2020/12/27 08:46:49;;;;;;;7.28;5.65;;;22.40;29.40;;;;;;5089530;28;20447;-63
2020/12/27 08:49:44;;;;;;;5.47;4.88;;;22.40;29.40;;;;;;5089509;28;20560;-63
2020/12/27 08:52:20;;;;;;;6.63;5.65;;;22.50;29.30;;;;;;5088717;28;20048;-64
2020/12/27 08:54:59;;;;;;;5.13;4.40;;;22.50;29.30;;;;;;5089860;28;20047;-63
2020/12/27 08:57:26;;;;;;;5.95;5.05;;;22.50;29.20;;;;;;5088931;28;20101;-63
2020/12/27 09:00:10;;;;;;;6.25;4.80;;;22.60;29.20;;;;;;5089406;28;20086;-64
2020/12/27 09:02:38;;;;;;;6.43;4.97;;;22.60;29.20;;;;;;5089202;28;20125;-64
2020/12/27 09:05:13;;;;;;;5.75;4.57;;;22.60;29.10;;;;;;5088142;28;20063;-63
2020/12/27 09:07:41;;;;;;;5.85;4.60;;;22.70;29.10;;;;;;5088990;28;20047;-64
2020/12/27 09:10:28;;;;;;;4.95;4.45;;;22.70;29.00;;;;;;5089222;28;20568;-64
2020/12/27 09:13:04;;;;;;;5.13;4.55;;;22.70;28.90;;;;;;5089250;28;20048;-63
2020/12/27 09:15:34;;;;;;;4.68;4.00;;;22.80;28.90;;;;;;5087521;28;20080;-63
2020/12/27 09:18:08;;;;;;;6.10;4.80;;;22.80;28.80;;;;;;5089695;28;20540;-63
2020/12/27 09:20:37;;;;;;;4.95;4.45;;;22.80;28.70;;;;;;5088879;28;20094;-63
2020/12/27 09:23:15;;;;;;;6.43;4.45;;;22.90;28.70;;;;;;5088515;28;20036;-63
2020/12/27 09:25:43;;;;;;;4.60;4.10;;;22.90;28.60;;;;;;5089180;28;20101;-63
2020/12/27 09:28:17;;;;;;;6.38;4.40;;;23.00;28.60;;;;;;5089077;28;20477;-64
2020/12/27 09:30:45;;;;;;;5.03;4.40;;;23.00;28.40;;;;;;5088679;28;20084;-64
2020/12/27 09:33:12;;;;;;;4.82;4.40;;;23.10;28.40;;;;;;5088853;28;20304;-64
2020/12/27 09:35:39;;;;;;;4.93;4.13;;;23.10;28.40;;;;;;5088980;28;20447;-64
2020/12/27 09:38:25;;;;;;;6.45;4.25;;;23.20;28.30;;;;;;5087414;28;20039;-64
2020/12/27 09:41:16;;;;;;;4.60;4.15;;;23.20;28.20;;;;;;5088516;28;20078;-63
2020/12/27 09:43:55;;;;;;;5.57;4.03;;;23.20;28.20;;;;;;5089042;28;20075;-63
2020/12/27 09:46:51;;;;;;;4.82;4.05;;;23.30;28.20;;;;;;5088200;28;20493;-63
2020/12/27 09:49:23;;;;;;;4.82;4.13;;;23.30;28.10;;;;;;5087977;28;20264;-63
2020/12/27 09:52:11;;;;;;;5.47;4.20;;;23.40;28.10;;;;;;5087550;28;20121;-64
2020/12/27 09:54:43;;;;;;;4.60;3.97;;;23.40;28.00;;;;;;5088675;28;20459;-63
2020/12/27 09:57:12;;;;;;;5.13;3.88;;;23.40;27.90;;;;;;5087935;28;20079;-63
2020/12/27 09:59:39;;;;;;;4.88;4.07;;;23.50;27.90;;;;;;5088029;28;20087;-63
2020/12/27 10:02:06;;;;;;;5.28;4.18;;;23.50;27.90;;;;;;5087353;28;20111;-63
2020/12/27 10:04:33;;;;;;;4.38;3.97;;;23.50;27.90;;;;;;5088191;28;20048;-63
2020/12/27 10:07:01;;;;;;;4.25;3.85;;;23.50;27.80;;;;;;5086674;28;20140;-63
2020/12/27 10:09:27;;;;;;;5.00;4.35;;;23.60;27.80;;;;;;5087885;28;20109;-63
2020/12/27 10:11:54;;;;;;;5.10;4.63;;;23.60;27.80;;;;;;5088430;28;20040;-64
2020/12/27 10:14:21;;;;;;;4.70;3.83;;;23.60;27.80;;;;;;5087852;28;20126;-63
2020/12/27 10:16:48;;;;;;;4.45;3.97;;;23.60;27.80;;;;;;5087839;28;20343;-64
2020/12/27 10:19:14;;;;;;;3.65;3.33;;;23.60;27.70;;;;;;5087774;28;20126;-63
2020/12/27 10:21:46;;;;;;;4.47;4.07;;;23.60;27.70;;;;;;5087131;28;20517;-66
2020/12/27 10:24:13;;;;;;;5.40;4.45;;;23.60;27.70;;;;;;5086086;28;20649;-64
2020/12/27 10:26:40;;;;;;;4.55;3.88;;;23.60;27.60;;;;;;5087300;28;20167;-64
2020/12/27 10:29:06;;;;;;;3.90;3.60;;;23.60;27.60;;;;;;5087680;28;20105;-63
2020/12/27 10:31:33;;;;;;;4.47;4.07;;;23.70;27.60;;;;;;5087783;28;20172;-63
2020/12/27 10:33:59;;;;;;;4.05;3.65;;;23.70;27.60;;;;;;5087229;28;20051;-64
2020/12/27 10:36:29;;;;;;;4.63;3.90;;;23.70;27.50;;;;;;5087945;28;20560;-64
2020/12/27 10:38:58;;;;;;;4.60;4.20;;;23.70;27.50;;;;;;5087160;28;20130;-64
2020/12/27 10:41:25;;;;;;;4.15;3.75;;;23.70;27.50;;;;;;5087860;28;20082;-63
2020/12/27 10:43:52;;;;;;;4.13;3.78;;;23.80;27.50;;;;;;5086956;28;20135;-63
2020/12/27 10:46:19;;;;;;;4.55;4.15;;;23.80;27.50;;;;;;5087938;28;20051;-64
2020/12/27 10:48:47;;;;;;;4.78;4.10;;;23.80;27.50;;;;;;5087746;28;20139;-63
2020/12/27 10:51:14;;;;;;;4.80;4.30;;;23.80;27.50;;;;;;5087506;28;20052;-63
2020/12/27 10:53:40;;;;;;;4.13;3.42;;;23.80;27.40;;;;;;5087706;28;20236;-63
2020/12/27 10:56:08;;;;;;;4.43;4.03;;;23.80;27.40;;;;;;5085794;28;20044;-63
2020/12/27 10:58:34;;;;;;;5.22;4.25;;;23.80;27.40;;;;;;5087173;28;20098;-63
2020/12/27 11:01:02;;;;;;;4.57;4.18;;;23.90;27.40;;;;;;5086842;28;20051;-64
2020/12/27 11:03:28;;;;;;;5.03;3.80;;;23.90;27.40;;;;;;5087288;28;20134;-63
2020/12/27 11:05:55;;;;;;;4.32;3.92;;;23.90;27.30;;;;;;5087315;28;20090;-63
2020/12/27 11:08:22;;;;;;;4.53;4.13;;;23.90;27.30;;;;;;5086147;28;20420;-63
2020/12/27 11:10:48;;;;;;;4.63;4.18;;;23.90;27.30;;;;;;5086362;28;20493;-64
2020/12/27 11:13:15;;;;;;;5.32;4.40;;;23.90;27.30;;;;;;5087585;28;20135;-64
2020/12/27 11:15:41;;;;;;;4.65;4.25;;;23.90;27.30;;;;;;5087111;28;20040;-66
2020/12/27 11:18:08;;;;;;;5.07;4.57;;;23.90;27.20;;;;;;5085909;28;20040;-64
2020/12/27 11:20:35;;;;;;;4.78;4.10;;;23.90;27.20;;;;;;5086826;28;20506;-63
2020/12/27 11:23:01;;;;;;;4.95;4.45;;;24.00;27.30;;;;;;5086783;28;20083;-64
2020/12/27 11:25:28;;;;;;;4.22;3.83;;;24.00;27.20;;;;;;5086733;28;20322;-64
2020/12/27 11:27:55;;;;;;;4.20;3.90;;;24.00;27.20;;;;;;5089493;28;20102;-64
2020/12/27 11:30:21;;;;;;;5.07;4.57;;;24.00;27.20;;;;;;5091080;28;20131;-63
2020/12/27 11:32:48;;;;;;;4.80;4.28;;;24.00;27.20;;;;;;5091622;28;20509;-63
2020/12/27 11:35:15;;;;;;;5.50;4.43;;;24.00;27.20;;;;;;5091023;28;20127;-64
2020/12/27 11:37:41;;;;;;;7.00;4.40;;;24.00;27.20;;;;;;5090590;28;20059;-63
2020/12/27 11:40:08;;;;;;;4.90;4.43;;;24.00;27.20;;;;;;5090974;28;20316;-63
2020/12/27 11:42:36;;;;;;;4.22;3.88;;;24.00;27.20;;;;;;5090861;28;20473;-63
2020/12/27 11:45:04;;;;;;;5.28;4.63;;;24.00;27.20;;;;;;5089651;28;20627;-63
2020/12/27 11:47:30;;;;;;;5.15;4.65;;;24.00;27.20;;;;;;5090662;28;20044;-64
2020/12/27 11:49:57;;;;;;;4.28;3.88;;;24.00;27.20;;;;;;5093801;28;20097;-64
2020/12/27 11:52:25;;;;;;;5.32;4.45;;;24.00;27.20;;;;;;5094681;28;20075;-64
2020/12/27 11:54:52;;;;;;;4.60;4.10;;;24.00;27.20;;;;;;5093952;28;20047;-64
2020/12/27 11:57:19;;;;;;;5.38;4.82;;;24.00;27.10;;;;;;5093957;28;20048;-63
2020/12/27 11:59:46;;;;;;;5.05;4.47;;;24.00;27.60;;;;;;5093422;28;20131;-64
2020/12/27 12:02:12;;;;;;;4.82;4.32;;;24.00;27.20;;;;;;5093248;28;20104;-64
2020/12/27 12:04:39;;;;;;;4.72;4.25;;;24.00;27.20;;;;;;5095674;28;20098;-64
2020/12/27 12:07:05;;;;;;;5.20;4.70;;;24.00;27.20;;;;;;5092675;28;20211;-63
2020/12/27 12:09:32;;;;;;;4.57;3.92;;;24.00;27.20;;;;;;5090188;28;20048;-67
2020/12/27 12:12:09;;;;;;;5.28;4.72;;;24.00;27.10;;;;;;5090696;28;20131;-63
2020/12/27 12:14:37;;;;;;;5.63;5.05;;;24.00;27.20;;;;;;5090474;28;20087;-63
2020/12/27 12:17:03;;;;;;;5.25;4.75;;;24.00;27.10;;;;;;5089747;28;20044;-63
2020/12/27 12:19:30;;;;;;;4.88;4.38;;;24.00;27.10;;;;;;5090620;28;20109;-63
2020/12/27 12:21:56;;;;;;;4.60;4.20;;;24.00;27.10;;;;;;5088665;28;20123;-63
2020/12/27 12:24:23;;;;;;;4.88;4.47;;;24.00;27.10;;;;;;5089717;28;20058;-63
2020/12/27 12:26:50;;;;;;;5.32;4.43;;;24.00;27.10;;;;;;5090146;28;20044;-64
2020/12/27 12:29:17;;;;;;;5.18;4.68;;;24.00;27.10;;;;;;5089756;28;20055;-63
2020/12/27 12:31:44;;;;;;;4.80;4.32;;;24.00;27.10;;;;;;5090560;28;20097;-64
2020/12/27 12:34:11;;;;;;;4.95;4.40;;;24.00;27.10;;;;;;5089632;28;20075;-63
2020/12/27 12:36:37;;;;;;;5.38;4.88;;;24.00;27.20;;;;;;5089438;28;20106;-64
2020/12/27 12:39:06;;;;;;;5.45;4.95;;;24.00;27.20;;;;;;5088360;28;20060;-63
2020/12/27 12:41:32;;;;;;;5.35;4.53;;;24.00;27.10;;;;;;5089720;28;20079;-63
2020/12/27 12:43:59;;;;;;;5.75;4.75;;;24.00;27.20;;;;;;5090298;28;20143;-63
2020/12/27 12:46:27;;;;;;;5.82;4.85;;;24.00;27.20;;;;;;5088153;28;20082;-63
2020/12/27 12:48:54;;;;;;;6.03;4.32;;;24.00;27.20;;;;;;5090212;28;20143;-63
2020/12/27 12:51:22;;;;;;;5.80;5.18;;;24.00;27.20;;;;;;5089257;28;20101;-63
2020/12/27 12:53:49;;;;;;;5.63;5.07;;;24.00;27.20;;;;;;5088602;28;20314;-64